sensor_id;sensor_type;location;lat;lon;timestamp;P1;durP1;ratioP1;P2;durP2;ratioP2
57551;SDS011;43379;48.160;14.036;2022-08-27T00:00:29;6.87;;;6.27;;
57551;SDS011;43379;48.160;14.036;2022-08-27T00:02:55;6.90;;;6.23;;
57551;SDS011;43379;48.160;14.036;2022-08-27T00:05:21;7.43;;;6.80;;
57551;SDS011;43379;48.160;14.036;2022-08-27T00:07:47;7.30;;;6.70;;
57551;SDS011;43379;48.160;14.036;2022-08-27T00:10:14;7.10;;;6.50;;
57551;SDS011;43379;48.160;14.036;2022-08-27T00:12:43;6.83;;;6.30;;
57551;SDS011;43379;48.160;14.036;2022-08-27T00:15:10;7.10;;;6.50;;
57551;SDS011;43379;48.160;14.036;2022-08-27T00:17:37;7.77;;;7.00;;
57551;SDS011;43379;48.160;14.036;2022-08-27T00:20:03;7.40;;;6.70;;
57551;SDS011;43379;48.160;14.036;2022-08-27T00:22:30;7.37;;;6.67;;
57551;SDS011;43379;48.160;14.036;2022-08-27T00:24:56;6.67;;;6.03;;
57551;SDS011;43379;48.160;14.036;2022-08-27T00:27:22;7.07;;;6.47;;
57551;SDS011;43379;48.160;14.036;2022-08-27T00:29:47;6.63;;;6.13;;
57551;SDS011;43379;48.160;14.036;2022-08-27T00:32:13;6.70;;;6.20;;
57551;SDS011;43379;48.160;14.036;2022-08-27T00:34:40;7.80;;;7.30;;
57551;SDS011;43379;48.160;14.036;2022-08-27T00:37:05;7.20;;;6.60;;
57551;SDS011;43379;48.160;14.036;2022-08-27T00:39:31;6.93;;;6.43;;
57551;SDS011;43379;48.160;14.036;2022-08-27T00:41:58;6.73;;;6.20;;
57551;SDS011;43379;48.160;14.036;2022-08-27T00:44:25;7.50;;;6.80;;
57551;SDS011;43379;48.160;14.036;2022-08-27T00:46:53;7.40;;;6.73;;
57551;SDS011;43379;48.160;14.036;2022-08-27T00:49:40;7.73;;;7.13;;
57551;SDS011;43379;48.160;14.036;2022-08-27T00:52:24;6.93;;;6.43;;
57551;SDS011;43379;48.160;14.036;2022-08-27T00:54:57;6.97;;;6.33;;
57551;SDS011;43379;48.160;14.036;2022-08-27T00:57:34;7.30;;;6.60;;
57551;SDS011;43379;48.160;14.036;2022-08-27T01:00:05;7.63;;;6.87;;
57551;SDS011;43379;48.160;14.036;2022-08-27T01:02:33;7.53;;;6.97;;
57551;SDS011;43379;48.160;14.036;2022-08-27T01:05:04;7.03;;;6.37;;
57551;SDS011;43379;48.160;14.036;2022-08-27T01:07:33;7.47;;;6.77;;
57551;SDS011;43379;48.160;14.036;2022-08-27T01:10:02;7.90;;;7.20;;
57551;SDS011;43379;48.160;14.036;2022-08-27T01:12:31;8.50;;;7.70;;
57551;SDS011;43379;48.160;14.036;2022-08-27T01:14:58;7.53;;;6.93;;
57551;SDS011;43379;48.160;14.036;2022-08-27T01:17:25;7.87;;;7.20;;
57551;SDS011;43379;48.160;14.036;2022-08-27T01:19:56;7.20;;;6.60;;
57551;SDS011;43379;48.160;14.036;2022-08-27T01:22:28;7.50;;;7.00;;
57551;SDS011;43379;48.160;14.036;2022-08-27T01:24:59;8.80;;;8.00;;
57551;SDS011;43379;48.160;14.036;2022-08-27T01:27:29;9.13;;;7.03;;
57551;SDS011;43379;48.160;14.036;2022-08-27T01:29:55;7.40;;;6.70;;
57551;SDS011;43379;48.160;14.036;2022-08-27T01:32:23;7.40;;;6.70;;
57551;SDS011;43379;48.160;14.036;2022-08-27T01:34:53;7.67;;;7.07;;
57551;SDS011;43379;48.160;14.036;2022-08-27T01:37:20;7.73;;;7.03;;
57551;SDS011;43379;48.160;14.036;2022-08-27T01:39:47;7.30;;;6.80;;
57551;SDS011;43379;48.160;14.036;2022-08-27T01:42:14;7.90;;;7.30;;
57551;SDS011;43379;48.160;14.036;2022-08-27T01:44:47;7.37;;;6.77;;
57551;SDS011;43379;48.160;14.036;2022-08-27T01:47:18;8.00;;;7.37;;
57551;SDS011;43379;48.160;14.036;2022-08-27T01:49:46;7.60;;;6.90;;
57551;SDS011;43379;48.160;14.036;2022-08-27T01:52:13;8.13;;;7.40;;
57551;SDS011;43379;48.160;14.036;2022-08-27T01:54:40;8.23;;;7.50;;
57551;SDS011;43379;48.160;14.036;2022-08-27T01:57:06;7.97;;;7.17;;
57551;SDS011;43379;48.160;14.036;2022-08-27T01:59:32;8.37;;;7.20;;
57551;SDS011;43379;48.160;14.036;2022-08-27T02:01:58;8.00;;;7.30;;
57551;SDS011;43379;48.160;14.036;2022-08-27T02:04:26;8.93;;;7.73;;
57551;SDS011;43379;48.160;14.036;2022-08-27T02:06:53;8.60;;;7.90;;
57551;SDS011;43379;48.160;14.036;2022-08-27T02:09:18;7.97;;;7.23;;
57551;SDS011;43379;48.160;14.036;2022-08-27T02:11:44;9.00;;;7.83;;
57551;SDS011;43379;48.160;14.036;2022-08-27T02:14:10;9.50;;;8.73;;
57551;SDS011;43379;48.160;14.036;2022-08-27T02:16:37;9.10;;;7.77;;
57551;SDS011;43379;48.160;14.036;2022-08-27T02:19:03;9.53;;;8.67;;
57551;SDS011;43379;48.160;14.036;2022-08-27T02:21:29;9.00;;;8.10;;
57551;SDS011;43379;48.160;14.036;2022-08-27T02:23:55;9.60;;;8.80;;
57551;SDS011;43379;48.160;14.036;2022-08-27T02:26:21;9.07;;;8.37;;
57551;SDS011;43379;48.160;14.036;2022-08-27T02:28:47;9.00;;;8.10;;
57551;SDS011;43379;48.160;14.036;2022-08-27T02:33:56;9.30;;;8.50;;
57551;SDS011;43379;48.160;14.036;2022-08-27T02:36:22;9.17;;;8.47;;
57551;SDS011;43379;48.160;14.036;2022-08-27T02:38:48;8.70;;;8.07;;
57551;SDS011;43379;48.160;14.036;2022-08-27T02:41:14;14.13;;;9.67;;
57551;SDS011;43379;48.160;14.036;2022-08-27T02:43:41;10.23;;;8.20;;
57551;SDS011;43379;48.160;14.036;2022-08-27T02:46:07;9.40;;;8.60;;
57551;SDS011;43379;48.160;14.036;2022-08-27T02:48:36;9.87;;;8.97;;
57551;SDS011;43379;48.160;14.036;2022-08-27T02:51:02;9.20;;;8.17;;
57551;SDS011;43379;48.160;14.036;2022-08-27T02:53:30;9.13;;;8.43;;
57551;SDS011;43379;48.160;14.036;2022-08-27T02:55:56;10.60;;;9.60;;
57551;SDS011;43379;48.160;14.036;2022-08-27T02:58:21;9.90;;;9.07;;
57551;SDS011;43379;48.160;14.036;2022-08-27T03:00:47;9.93;;;8.70;;
57551;SDS011;43379;48.160;14.036;2022-08-27T03:03:13;9.77;;;8.90;;
57551;SDS011;43379;48.160;14.036;2022-08-27T03:05:39;9.10;;;8.40;;
57551;SDS011;43379;48.160;14.036;2022-08-27T03:08:05;10.97;;;9.87;;
57551;SDS011;43379;48.160;14.036;2022-08-27T03:10:31;11.27;;;10.27;;
57551;SDS011;43379;48.160;14.036;2022-08-27T03:12:57;11.70;;;10.70;;
57551;SDS011;43379;48.160;14.036;2022-08-27T03:15:23;12.23;;;11.13;;
57551;SDS011;43379;48.160;14.036;2022-08-27T03:17:49;10.40;;;9.60;;
57551;SDS011;43379;48.160;14.036;2022-08-27T03:20:36;11.87;;;10.87;;
57551;SDS011;43379;48.160;14.036;2022-08-27T03:23:04;11.57;;;10.43;;
57551;SDS011;43379;48.160;14.036;2022-08-27T03:25:31;12.13;;;10.53;;
57551;SDS011;43379;48.160;14.036;2022-08-27T03:27:57;12.30;;;10.47;;
57551;SDS011;43379;48.160;14.036;2022-08-27T03:30:23;11.33;;;10.33;;
57551;SDS011;43379;48.160;14.036;2022-08-27T03:32:49;12.67;;;11.40;;
57551;SDS011;43379;48.160;14.036;2022-08-27T03:35:15;11.17;;;10.27;;
57551;SDS011;43379;48.160;14.036;2022-08-27T03:37:43;10.73;;;9.83;;
57551;SDS011;43379;48.160;14.036;2022-08-27T03:40:09;11.30;;;10.40;;
57551;SDS011;43379;48.160;14.036;2022-08-27T03:42:36;11.60;;;10.60;;
57551;SDS011;43379;48.160;14.036;2022-08-27T03:45:03;11.43;;;10.63;;
57551;SDS011;43379;48.160;14.036;2022-08-27T03:47:29;11.97;;;10.80;;
57551;SDS011;43379;48.160;14.036;2022-08-27T03:49:56;10.77;;;9.83;;
57551;SDS011;43379;48.160;14.036;2022-08-27T03:52:24;11.33;;;10.33;;
57551;SDS011;43379;48.160;14.036;2022-08-27T03:54:50;12.10;;;10.90;;
57551;SDS011;43379;48.160;14.036;2022-08-27T03:57:16;11.50;;;10.50;;
57551;SDS011;43379;48.160;14.036;2022-08-27T03:59:41;11.07;;;9.80;;
57551;SDS011;43379;48.160;14.036;2022-08-27T04:02:07;12.13;;;10.97;;
57551;SDS011;43379;48.160;14.036;2022-08-27T04:04:33;11.27;;;10.17;;
57551;SDS011;43379;48.160;14.036;2022-08-27T04:06:59;12.07;;;10.87;;
57551;SDS011;43379;48.160;14.036;2022-08-27T04:09:25;11.13;;;10.23;;
57551;SDS011;43379;48.160;14.036;2022-08-27T04:11:51;11.97;;;10.73;;
57551;SDS011;43379;48.160;14.036;2022-08-27T04:14:16;11.63;;;10.53;;
57551;SDS011;43379;48.160;14.036;2022-08-27T04:16:42;11.70;;;10.80;;
57551;SDS011;43379;48.160;14.036;2022-08-27T04:19:08;13.13;;;11.87;;
57551;SDS011;43379;48.160;14.036;2022-08-27T04:21:34;11.93;;;11.00;;
57551;SDS011;43379;48.160;14.036;2022-08-27T04:24:00;12.50;;;11.30;;
57551;SDS011;43379;48.160;14.036;2022-08-27T04:26:26;12.43;;;11.33;;
57551;SDS011;43379;48.160;14.036;2022-08-27T04:28:52;11.80;;;10.90;;
57551;SDS011;43379;48.160;14.036;2022-08-27T04:31:19;12.57;;;11.67;;
57551;SDS011;43379;48.160;14.036;2022-08-27T04:33:46;12.83;;;11.63;;
57551;SDS011;43379;48.160;14.036;2022-08-27T04:36:12;13.20;;;12.00;;
57551;SDS011;43379;48.160;14.036;2022-08-27T04:38:38;12.20;;;11.00;;
57551;SDS011;43379;48.160;14.036;2022-08-27T04:41:08;12.53;;;11.47;;
57551;SDS011;43379;48.160;14.036;2022-08-27T04:43:44;11.27;;;10.17;;
57551;SDS011;43379;48.160;14.036;2022-08-27T04:46:10;10.53;;;9.63;;
57551;SDS011;43379;48.160;14.036;2022-08-27T04:48:36;10.60;;;9.70;;
57551;SDS011;43379;48.160;14.036;2022-08-27T04:51:02;10.37;;;9.57;;
57551;SDS011;43379;48.160;14.036;2022-08-27T04:53:28;9.57;;;8.87;;
57551;SDS011;43379;48.160;14.036;2022-08-27T04:55:54;9.70;;;8.90;;
57551;SDS011;43379;48.160;14.036;2022-08-27T04:58:21;11.07;;;10.17;;
57551;SDS011;43379;48.160;14.036;2022-08-27T05:00:49;10.27;;;9.47;;
57551;SDS011;43379;48.160;14.036;2022-08-27T05:03:17;9.60;;;8.80;;
57551;SDS011;43379;48.160;14.036;2022-08-27T05:05:47;9.47;;;8.77;;
57551;SDS011;43379;48.160;14.036;2022-08-27T05:08:12;10.50;;;9.60;;
57551;SDS011;43379;48.160;14.036;2022-08-27T05:10:39;9.83;;;8.83;;
57551;SDS011;43379;48.160;14.036;2022-08-27T05:13:10;10.10;;;9.20;;
57551;SDS011;43379;48.160;14.036;2022-08-27T05:15:36;10.03;;;9.23;;
57551;SDS011;43379;48.160;14.036;2022-08-27T05:18:02;9.53;;;8.70;;
57551;SDS011;43379;48.160;14.036;2022-08-27T05:20:29;11.63;;;8.80;;
57551;SDS011;43379;48.160;14.036;2022-08-27T05:22:57;9.03;;;8.33;;
57551;SDS011;43379;48.160;14.036;2022-08-27T05:25:23;10.53;;;9.60;;
57551;SDS011;43379;48.160;14.036;2022-08-27T05:27:50;10.80;;;9.80;;
57551;SDS011;43379;48.160;14.036;2022-08-27T05:30:16;10.60;;;9.60;;
57551;SDS011;43379;48.160;14.036;2022-08-27T05:32:41;9.83;;;9.13;;
57551;SDS011;43379;48.160;14.036;2022-08-27T05:35:07;10.90;;;9.63;;
57551;SDS011;43379;48.160;14.036;2022-08-27T05:37:34;9.73;;;8.93;;
57551;SDS011;43379;48.160;14.036;2022-08-27T05:40:00;10.43;;;9.43;;
57551;SDS011;43379;48.160;14.036;2022-08-27T05:42:30;12.87;;;9.40;;
57551;SDS011;43379;48.160;14.036;2022-08-27T05:44:56;9.70;;;9.00;;
57551;SDS011;43379;48.160;14.036;2022-08-27T05:47:22;10.57;;;9.67;;
57551;SDS011;43379;48.160;14.036;2022-08-27T05:49:52;9.80;;;9.00;;
57551;SDS011;43379;48.160;14.036;2022-08-27T05:52:18;11.50;;;10.40;;
57551;SDS011;43379;48.160;14.036;2022-08-27T05:54:44;11.60;;;10.60;;
57551;SDS011;43379;48.160;14.036;2022-08-27T05:57:10;12.20;;;11.10;;
57551;SDS011;43379;48.160;14.036;2022-08-27T05:59:36;11.57;;;10.60;;
57551;SDS011;43379;48.160;14.036;2022-08-27T06:02:20;11.13;;;10.27;;
57551;SDS011;43379;48.160;14.036;2022-08-27T06:04:46;10.73;;;9.93;;
57551;SDS011;43379;48.160;14.036;2022-08-27T06:07:12;11.47;;;10.57;;
57551;SDS011;43379;48.160;14.036;2022-08-27T06:09:39;10.13;;;9.33;;
57551;SDS011;43379;48.160;14.036;2022-08-27T06:12:06;11.27;;;10.17;;
57551;SDS011;43379;48.160;14.036;2022-08-27T06:14:33;12.70;;;10.63;;
57551;SDS011;43379;48.160;14.036;2022-08-27T06:17:00;11.37;;;10.30;;
57551;SDS011;43379;48.160;14.036;2022-08-27T06:19:26;10.70;;;9.80;;
57551;SDS011;43379;48.160;14.036;2022-08-27T06:21:52;10.13;;;9.40;;
57551;SDS011;43379;48.160;14.036;2022-08-27T06:24:18;10.37;;;9.40;;
57551;SDS011;43379;48.160;14.036;2022-08-27T06:26:44;10.63;;;9.63;;
57551;SDS011;43379;48.160;14.036;2022-08-27T06:29:10;10.90;;;10.00;;
57551;SDS011;43379;48.160;14.036;2022-08-27T06:31:37;9.40;;;8.60;;
57551;SDS011;43379;48.160;14.036;2022-08-27T06:34:03;9.83;;;8.90;;
57551;SDS011;43379;48.160;14.036;2022-08-27T06:36:31;9.47;;;8.70;;
57551;SDS011;43379;48.160;14.036;2022-08-27T06:38:59;11.93;;;10.20;;
57551;SDS011;43379;48.160;14.036;2022-08-27T06:41:26;9.00;;;8.40;;
57551;SDS011;43379;48.160;14.036;2022-08-27T06:43:52;11.60;;;10.40;;
57551;SDS011;43379;48.160;14.036;2022-08-27T06:46:20;12.33;;;9.37;;
57551;SDS011;43379;48.160;14.036;2022-08-27T06:48:55;11.47;;;10.50;;
57551;SDS011;43379;48.160;14.036;2022-08-27T06:51:27;11.77;;;10.80;;
57551;SDS011;43379;48.160;14.036;2022-08-27T06:53:56;11.30;;;10.40;;
57551;SDS011;43379;48.160;14.036;2022-08-27T06:56:23;10.70;;;9.80;;
57551;SDS011;43379;48.160;14.036;2022-08-27T06:58:53;11.13;;;10.03;;
57551;SDS011;43379;48.160;14.036;2022-08-27T07:01:22;11.10;;;10.20;;
57551;SDS011;43379;48.160;14.036;2022-08-27T07:03:52;10.40;;;9.30;;
57551;SDS011;43379;48.160;14.036;2022-08-27T07:06:22;10.17;;;9.37;;
57551;SDS011;43379;48.160;14.036;2022-08-27T07:08:48;11.63;;;10.70;;
57551;SDS011;43379;48.160;14.036;2022-08-27T07:11:14;11.20;;;10.00;;
57551;SDS011;43379;48.160;14.036;2022-08-27T07:13:40;10.87;;;9.87;;
57551;SDS011;43379;48.160;14.036;2022-08-27T07:16:07;10.73;;;9.13;;
57551;SDS011;43379;48.160;14.036;2022-08-27T07:18:35;10.00;;;9.00;;
57551;SDS011;43379;48.160;14.036;2022-08-27T07:21:01;10.60;;;9.70;;
57551;SDS011;43379;48.160;14.036;2022-08-27T07:23:30;10.83;;;9.93;;
57551;SDS011;43379;48.160;14.036;2022-08-27T07:25:57;10.80;;;9.80;;
57551;SDS011;43379;48.160;14.036;2022-08-27T07:28:23;10.03;;;9.00;;
57551;SDS011;43379;48.160;14.036;2022-08-27T07:30:49;11.47;;;10.13;;
57551;SDS011;43379;48.160;14.036;2022-08-27T07:33:16;13.33;;;11.00;;
57551;SDS011;43379;48.160;14.036;2022-08-27T07:35:42;10.70;;;9.70;;
57551;SDS011;43379;48.160;14.036;2022-08-27T07:38:09;11.40;;;10.50;;
57551;SDS011;43379;48.160;14.036;2022-08-27T07:40:36;11.17;;;10.07;;
57551;SDS011;43379;48.160;14.036;2022-08-27T07:43:04;10.80;;;9.80;;
57551;SDS011;43379;48.160;14.036;2022-08-27T07:45:49;11.87;;;10.57;;
57551;SDS011;43379;48.160;14.036;2022-08-27T07:48:19;11.30;;;10.20;;
57551;SDS011;43379;48.160;14.036;2022-08-27T07:50:48;10.60;;;9.60;;
57551;SDS011;43379;48.160;14.036;2022-08-27T07:53:14;11.13;;;9.97;;
57551;SDS011;43379;48.160;14.036;2022-08-27T07:55:40;11.00;;;9.93;;
57551;SDS011;43379;48.160;14.036;2022-08-27T07:58:06;10.43;;;9.27;;
57551;SDS011;43379;48.160;14.036;2022-08-27T08:00:32;10.63;;;9.63;;
57551;SDS011;43379;48.160;14.036;2022-08-27T08:02:59;10.83;;;9.73;;
57551;SDS011;43379;48.160;14.036;2022-08-27T08:05:25;14.20;;;9.87;;
57551;SDS011;43379;48.160;14.036;2022-08-27T08:07:51;10.10;;;9.30;;
57551;SDS011;43379;48.160;14.036;2022-08-27T08:10:17;10.53;;;9.50;;
57551;SDS011;43379;48.160;14.036;2022-08-27T08:12:46;10.47;;;9.20;;
57551;SDS011;43379;48.160;14.036;2022-08-27T08:15:13;9.47;;;8.57;;
57551;SDS011;43379;48.160;14.036;2022-08-27T08:17:39;9.57;;;8.67;;
57551;SDS011;43379;48.160;14.036;2022-08-27T08:20:05;10.63;;;9.60;;
57551;SDS011;43379;48.160;14.036;2022-08-27T08:22:32;10.73;;;9.83;;
57551;SDS011;43379;48.160;14.036;2022-08-27T08:24:58;10.00;;;8.90;;
57551;SDS011;43379;48.160;14.036;2022-08-27T08:27:24;10.90;;;10.00;;
57551;SDS011;43379;48.160;14.036;2022-08-27T08:29:50;10.80;;;9.80;;
57551;SDS011;43379;48.160;14.036;2022-08-27T08:32:16;11.00;;;9.83;;
57551;SDS011;43379;48.160;14.036;2022-08-27T08:34:42;14.90;;;8.63;;
57551;SDS011;43379;48.160;14.036;2022-08-27T08:37:08;9.50;;;8.70;;
57551;SDS011;43379;48.160;14.036;2022-08-27T08:39:34;10.00;;;8.50;;
57551;SDS011;43379;48.160;14.036;2022-08-27T08:42:02;11.70;;;8.90;;
57551;SDS011;43379;48.160;14.036;2022-08-27T08:44:33;9.47;;;8.47;;
57551;SDS011;43379;48.160;14.036;2022-08-27T08:55:35;10.27;;;9.33;;
57551;SDS011;43379;48.160;14.036;2022-08-27T08:58:19;9.27;;;8.10;;
57551;SDS011;43379;48.160;14.036;2022-08-27T09:00:59;10.00;;;8.97;;
57551;SDS011;43379;48.160;14.036;2022-08-27T09:03:27;10.30;;;9.40;;
57551;SDS011;43379;48.160;14.036;2022-08-27T09:06:07;10.40;;;9.50;;
57551;SDS011;43379;48.160;14.036;2022-08-27T09:08:53;11.23;;;10.07;;
57551;SDS011;43379;48.160;14.036;2022-08-27T09:11:38;13.27;;;10.53;;
57551;SDS011;43379;48.160;14.036;2022-08-27T09:14:18;11.27;;;10.03;;
57551;SDS011;43379;48.160;14.036;2022-08-27T09:17:09;11.10;;;10.10;;
57551;SDS011;43379;48.160;14.036;2022-08-27T09:19:34;11.90;;;10.00;;
57551;SDS011;43379;48.160;14.036;2022-08-27T09:28:01;9.23;;;8.33;;
57551;SDS011;43379;48.160;14.036;2022-08-27T09:30:32;8.97;;;8.10;;
57551;SDS011;43379;48.160;14.036;2022-08-27T09:33:06;10.00;;;9.10;;
57551;SDS011;43379;48.160;14.036;2022-08-27T09:35:38;9.80;;;8.90;;
57551;SDS011;43379;48.160;14.036;2022-08-27T09:38:06;10.27;;;9.30;;
57551;SDS011;43379;48.160;14.036;2022-08-27T09:40:45;10.27;;;9.40;;
57551;SDS011;43379;48.160;14.036;2022-08-27T09:45:46;10.07;;;9.20;;
57551;SDS011;43379;48.160;14.036;2022-08-27T09:48:34;9.90;;;9.10;;
57551;SDS011;43379;48.160;14.036;2022-08-27T09:51:08;8.70;;;7.90;;
57551;SDS011;43379;48.160;14.036;2022-08-27T09:53:57;9.57;;;8.67;;
57551;SDS011;43379;48.160;14.036;2022-08-27T09:56:26;9.37;;;8.57;;
57551;SDS011;43379;48.160;14.036;2022-08-27T10:01:29;8.83;;;8.23;;
57551;SDS011;43379;48.160;14.036;2022-08-27T10:04:04;10.03;;;9.13;;
57551;SDS011;43379;48.160;14.036;2022-08-27T10:06:30;9.43;;;8.63;;
57551;SDS011;43379;48.160;14.036;2022-08-27T10:08:59;9.50;;;8.60;;
57551;SDS011;43379;48.160;14.036;2022-08-27T10:11:34;9.00;;;8.20;;
57551;SDS011;43379;48.160;14.036;2022-08-27T10:14:07;8.57;;;7.77;;
57551;SDS011;43379;48.160;14.036;2022-08-27T10:27:27;9.10;;;8.27;;
57551;SDS011;43379;48.160;14.036;2022-08-27T10:30:07;8.93;;;8.30;;
57551;SDS011;43379;48.160;14.036;2022-08-27T10:32:45;10.70;;;8.80;;
57551;SDS011;43379;48.160;14.036;2022-08-27T10:35:20;9.07;;;8.17;;
57551;SDS011;43379;48.160;14.036;2022-08-27T10:40:33;8.70;;;8.00;;
57551;SDS011;43379;48.160;14.036;2022-08-27T10:48:22;9.60;;;8.73;;
57551;SDS011;43379;48.160;14.036;2022-08-27T10:56:52;10.40;;;9.50;;
57551;SDS011;43379;48.160;14.036;2022-08-27T11:04:23;9.40;;;8.23;;
57551;SDS011;43379;48.160;14.036;2022-08-27T11:07:13;8.20;;;7.13;;
57551;SDS011;43379;48.160;14.036;2022-08-27T11:09:46;8.33;;;7.40;;
57551;SDS011;43379;48.160;14.036;2022-08-27T11:12:16;7.57;;;6.90;;
57551;SDS011;43379;48.160;14.036;2022-08-27T11:14:59;8.50;;;7.60;;
57551;SDS011;43379;48.160;14.036;2022-08-27T11:17:34;7.30;;;6.60;;
57551;SDS011;43379;48.160;14.036;2022-08-27T11:20:18;8.30;;;7.57;;
57551;SDS011;43379;48.160;14.036;2022-08-27T11:22:55;6.60;;;6.00;;
57551;SDS011;43379;48.160;14.036;2022-08-27T11:25:42;7.63;;;7.00;;
57551;SDS011;43379;48.160;14.036;2022-08-27T11:28:15;7.80;;;6.57;;
57551;SDS011;43379;48.160;14.036;2022-08-27T11:44:20;8.40;;;7.70;;
57551;SDS011;43379;48.160;14.036;2022-08-27T11:46:50;7.87;;;7.17;;
57551;SDS011;43379;48.160;14.036;2022-08-27T11:49:25;8.47;;;7.77;;
57551;SDS011;43379;48.160;14.036;2022-08-27T11:52:03;8.53;;;7.73;;
57551;SDS011;43379;48.160;14.036;2022-08-27T11:54:47;7.80;;;7.13;;
57551;SDS011;43379;48.160;14.036;2022-08-27T11:57:30;7.50;;;6.70;;
57551;SDS011;43379;48.160;14.036;2022-08-27T11:59:57;8.07;;;7.23;;
57551;SDS011;43379;48.160;14.036;2022-08-27T12:02:34;9.43;;;7.20;;
57551;SDS011;43379;48.160;14.036;2022-08-27T12:05:08;7.80;;;7.03;;
57551;SDS011;43379;48.160;14.036;2022-08-27T12:07:45;7.57;;;6.97;;
57551;SDS011;43379;48.160;14.036;2022-08-27T12:18:41;10.20;;;7.73;;
57551;SDS011;43379;48.160;14.036;2022-08-27T12:26:57;7.00;;;6.40;;
57551;SDS011;43379;48.160;14.036;2022-08-27T12:29:41;7.27;;;6.10;;
57551;SDS011;43379;48.160;14.036;2022-08-27T12:32:24;8.43;;;6.60;;
57551;SDS011;43379;48.160;14.036;2022-08-27T12:34:58;7.03;;;6.33;;
57551;SDS011;43379;48.160;14.036;2022-08-27T12:37:38;8.33;;;6.40;;
57551;SDS011;43379;48.160;14.036;2022-08-27T12:40:13;6.70;;;6.00;;
57551;SDS011;43379;48.160;14.036;2022-08-27T12:42:47;6.80;;;6.20;;
57551;SDS011;43379;48.160;14.036;2022-08-27T12:45:21;7.47;;;6.20;;
57551;SDS011;43379;48.160;14.036;2022-08-27T12:47:48;7.30;;;6.60;;
57551;SDS011;43379;48.160;14.036;2022-08-27T12:50:23;6.83;;;6.30;;
57551;SDS011;43379;48.160;14.036;2022-08-27T12:55:34;6.80;;;6.30;;
57551;SDS011;43379;48.160;14.036;2022-08-27T13:03:31;6.50;;;6.07;;
57551;SDS011;43379;48.160;14.036;2022-08-27T13:06:13;6.50;;;5.90;;
57551;SDS011;43379;48.160;14.036;2022-08-27T13:08:51;7.00;;;6.47;;
57551;SDS011;43379;48.160;14.036;2022-08-27T13:11:22;6.43;;;5.87;;
57551;SDS011;43379;48.160;14.036;2022-08-27T13:13:51;7.10;;;6.50;;
57551;SDS011;43379;48.160;14.036;2022-08-27T13:16:20;7.37;;;6.60;;
57551;SDS011;43379;48.160;14.036;2022-08-27T13:18:47;6.27;;;5.63;;
57551;SDS011;43379;48.160;14.036;2022-08-27T13:21:24;7.57;;;6.80;;
57551;SDS011;43379;48.160;14.036;2022-08-27T13:26:26;6.90;;;6.20;;
57551;SDS011;43379;48.160;14.036;2022-08-27T13:28:54;7.53;;;6.63;;
57551;SDS011;43379;48.160;14.036;2022-08-27T13:31:21;6.23;;;5.80;;
57551;SDS011;43379;48.160;14.036;2022-08-27T13:33:49;7.80;;;6.77;;
57551;SDS011;43379;48.160;14.036;2022-08-27T13:36:31;7.80;;;7.20;;
57551;SDS011;43379;48.160;14.036;2022-08-27T13:39:00;7.83;;;6.93;;
57551;SDS011;43379;48.160;14.036;2022-08-27T13:41:31;7.70;;;6.70;;
57551;SDS011;43379;48.160;14.036;2022-08-27T13:44:19;7.23;;;6.63;;
57551;SDS011;43379;48.160;14.036;2022-08-27T13:47:06;6.90;;;6.40;;
57551;SDS011;43379;48.160;14.036;2022-08-27T13:49:41;7.43;;;6.73;;
57551;SDS011;43379;48.160;14.036;2022-08-27T13:52:23;6.97;;;6.37;;
57551;SDS011;43379;48.160;14.036;2022-08-27T13:57:30;7.10;;;6.60;;
57551;SDS011;43379;48.160;14.036;2022-08-27T14:02:54;7.87;;;7.07;;
57551;SDS011;43379;48.160;14.036;2022-08-27T14:07:49;7.00;;;6.40;;
57551;SDS011;43379;48.160;14.036;2022-08-27T14:12:42;8.47;;;6.23;;
57551;SDS011;43379;48.160;14.036;2022-08-27T14:15:30;8.10;;;7.40;;
57551;SDS011;43379;48.160;14.036;2022-08-27T14:17:59;9.10;;;8.20;;
57551;SDS011;43379;48.160;14.036;2022-08-27T14:20:25;7.60;;;7.00;;
57551;SDS011;43379;48.160;14.036;2022-08-27T14:22:52;7.50;;;6.80;;
57551;SDS011;43379;48.160;14.036;2022-08-27T14:25:18;8.23;;;7.47;;
57551;SDS011;43379;48.160;14.036;2022-08-27T14:27:45;7.73;;;7.13;;
57551;SDS011;43379;48.160;14.036;2022-08-27T14:30:15;8.20;;;7.40;;
57551;SDS011;43379;48.160;14.036;2022-08-27T14:32:43;8.20;;;7.53;;
57551;SDS011;43379;48.160;14.036;2022-08-27T14:35:09;6.30;;;5.30;;
57551;SDS011;43379;48.160;14.036;2022-08-27T14:37:39;11.03;;;7.87;;
57551;SDS011;43379;48.160;14.036;2022-08-27T14:40:07;8.77;;;7.90;;
57551;SDS011;43379;48.160;14.036;2022-08-27T14:42:35;12.30;;;8.97;;
57551;SDS011;43379;48.160;14.036;2022-08-27T14:45:01;9.80;;;7.90;;
57551;SDS011;43379;48.160;14.036;2022-08-27T14:47:26;8.73;;;7.63;;
57551;SDS011;43379;48.160;14.036;2022-08-27T14:49:52;8.00;;;7.20;;
57551;SDS011;43379;48.160;14.036;2022-08-27T14:52:18;13.90;;;8.23;;
57551;SDS011;43379;48.160;14.036;2022-08-27T14:54:44;8.00;;;7.40;;
57551;SDS011;43379;48.160;14.036;2022-08-27T14:57:10;8.70;;;7.90;;
57551;SDS011;43379;48.160;14.036;2022-08-27T14:59:36;8.00;;;7.20;;
57551;SDS011;43379;48.160;14.036;2022-08-27T15:02:04;9.27;;;7.50;;
57551;SDS011;43379;48.160;14.036;2022-08-27T15:04:32;8.43;;;7.73;;
57551;SDS011;43379;48.160;14.036;2022-08-27T15:06:58;8.17;;;7.47;;
57551;SDS011;43379;48.160;14.036;2022-08-27T15:09:24;7.07;;;6.47;;
57551;SDS011;43379;48.160;14.036;2022-08-27T15:11:50;7.70;;;7.10;;
57551;SDS011;43379;48.160;14.036;2022-08-27T15:14:25;12.53;;;7.33;;
57551;SDS011;43379;48.160;14.036;2022-08-27T15:16:53;7.80;;;7.20;;
57551;SDS011;43379;48.160;14.036;2022-08-27T15:19:19;7.80;;;7.07;;
57551;SDS011;43379;48.160;14.036;2022-08-27T15:21:47;7.70;;;7.00;;
57551;SDS011;43379;48.160;14.036;2022-08-27T15:24:18;7.73;;;7.00;;
57551;SDS011;43379;48.160;14.036;2022-08-27T15:26:47;7.50;;;6.80;;
57551;SDS011;43379;48.160;14.036;2022-08-27T15:29:14;7.20;;;6.50;;
57551;SDS011;43379;48.160;14.036;2022-08-27T15:31:40;8.03;;;7.27;;
57551;SDS011;43379;48.160;14.036;2022-08-27T15:34:07;7.90;;;6.80;;
57551;SDS011;43379;48.160;14.036;2022-08-27T15:36:33;7.87;;;7.13;;
57551;SDS011;43379;48.160;14.036;2022-08-27T15:38:59;7.50;;;6.80;;
57551;SDS011;43379;48.160;14.036;2022-08-27T15:41:25;8.53;;;7.80;;
57551;SDS011;43379;48.160;14.036;2022-08-27T15:43:51;7.03;;;6.43;;
57551;SDS011;43379;48.160;14.036;2022-08-27T15:46:17;7.00;;;6.47;;
57551;SDS011;43379;48.160;14.036;2022-08-27T15:48:43;8.23;;;7.47;;
57551;SDS011;43379;48.160;14.036;2022-08-27T15:51:09;7.20;;;6.50;;
57551;SDS011;43379;48.160;14.036;2022-08-27T15:53:37;7.73;;;6.93;;
57551;SDS011;43379;48.160;14.036;2022-08-27T15:56:04;8.23;;;6.70;;
57551;SDS011;43379;48.160;14.036;2022-08-27T15:58:32;7.23;;;6.70;;
57551;SDS011;43379;48.160;14.036;2022-08-27T16:01:06;7.40;;;6.90;;
57551;SDS011;43379;48.160;14.036;2022-08-27T16:03:34;8.03;;;7.33;;
57551;SDS011;43379;48.160;14.036;2022-08-27T16:06:02;7.27;;;6.70;;
57551;SDS011;43379;48.160;14.036;2022-08-27T16:08:29;7.20;;;6.60;;
57551;SDS011;43379;48.160;14.036;2022-08-27T16:10:54;8.37;;;6.53;;
57551;SDS011;43379;48.160;14.036;2022-08-27T16:13:21;8.10;;;7.00;;
57551;SDS011;43379;48.160;14.036;2022-08-27T16:15:49;7.87;;;7.00;;
57551;SDS011;43379;48.160;14.036;2022-08-27T16:18:15;7.30;;;6.47;;